sensor_id;sensor_type;location;lat;lon;timestamp;P1;durP1;ratioP1;P2;durP2;ratioP2
37855;SDS011;23694;43.274;26.924;2023-07-13T00:01:53;15.55;;;8.05;;
37855;SDS011;23694;43.274;26.924;2023-07-13T00:04:20;11.88;;;8.77;;
37855;SDS011;23694;43.274;26.924;2023-07-13T00:06:48;10.77;;;8.70;;
37855;SDS011;23694;43.274;26.924;2023-07-13T00:09:16;15.50;;;8.73;;
37855;SDS011;23694;43.274;26.924;2023-07-13T00:11:44;9.05;;;7.78;;
37855;SDS011;23694;43.274;26.924;2023-07-13T00:14:13;12.18;;;7.68;;
37855;SDS011;23694;43.274;26.924;2023-07-13T00:16:41;11.63;;;7.78;;
37855;SDS011;23694;43.274;26.924;2023-07-13T00:19:10;13.88;;;8.45;;
37855;SDS011;23694;43.274;26.924;2023-07-13T00:21:37;15.32;;;7.72;;
37855;SDS011;23694;43.274;26.924;2023-07-13T00:24:05;9.85;;;7.38;;
37855;SDS011;23694;43.274;26.924;2023-07-13T00:26:32;11.45;;;7.93;;
37855;SDS011;23694;43.274;26.924;2023-07-13T00:28:58;10.52;;;7.57;;
37855;SDS011;23694;43.274;26.924;2023-07-13T00:31:24;10.85;;;7.78;;
37855;SDS011;23694;43.274;26.924;2023-07-13T00:33:51;12.30;;;7.72;;
37855;SDS011;23694;43.274;26.924;2023-07-13T00:36:17;10.55;;;7.38;;
37855;SDS011;23694;43.274;26.924;2023-07-13T00:38:43;10.38;;;7.95;;
37855;SDS011;23694;43.274;26.924;2023-07-13T00:41:09;11.52;;;8.18;;
37855;SDS011;23694;43.274;26.924;2023-07-13T00:43:36;10.48;;;7.80;;
37855;SDS011;23694;43.274;26.924;2023-07-13T00:46:10;9.80;;;7.70;;
37855;SDS011;23694;43.274;26.924;2023-07-13T00:48:37;11.00;;;8.07;;
37855;SDS011;23694;43.274;26.924;2023-07-13T00:51:04;10.30;;;7.72;;
37855;SDS011;23694;43.274;26.924;2023-07-13T00:53:30;11.27;;;8.05;;
37855;SDS011;23694;43.274;26.924;2023-07-13T00:55:59;12.38;;;8.95;;
37855;SDS011;23694;43.274;26.924;2023-07-13T00:58:26;16.30;;;9.60;;
37855;SDS011;23694;43.274;26.924;2023-07-13T01:00:53;10.45;;;8.88;;
37855;SDS011;23694;43.274;26.924;2023-07-13T01:03:19;15.02;;;8.60;;
37855;SDS011;23694;43.274;26.924;2023-07-13T01:05:47;14.30;;;9.15;;
37855;SDS011;23694;43.274;26.924;2023-07-13T01:08:15;12.65;;;9.35;;
37855;SDS011;23694;43.274;26.924;2023-07-13T01:10:50;14.05;;;9.57;;
37855;SDS011;23694;43.274;26.924;2023-07-13T01:13:17;13.93;;;8.73;;
37855;SDS011;23694;43.274;26.924;2023-07-13T01:15:46;14.80;;;9.85;;
37855;SDS011;23694;43.274;26.924;2023-07-13T01:18:31;20.15;;;10.27;;
37855;SDS011;23694;43.274;26.924;2023-07-13T01:20:58;16.20;;;9.38;;
37855;SDS011;23694;43.274;26.924;2023-07-13T01:23:27;12.55;;;8.95;;
37855;SDS011;23694;43.274;26.924;2023-07-13T01:25:54;10.65;;;8.15;;
37855;SDS011;23694;43.274;26.924;2023-07-13T01:28:20;12.70;;;8.30;;
37855;SDS011;23694;43.274;26.924;2023-07-13T01:30:47;10.13;;;7.88;;
37855;SDS011;23694;43.274;26.924;2023-07-13T01:33:14;12.68;;;9.02;;
37855;SDS011;23694;43.274;26.924;2023-07-13T01:35:42;11.15;;;8.30;;
37855;SDS011;23694;43.274;26.924;2023-07-13T01:38:09;13.30;;;8.55;;
37855;SDS011;23694;43.274;26.924;2023-07-13T01:40:36;13.40;;;8.50;;
37855;SDS011;23694;43.274;26.924;2023-07-13T01:43:03;12.77;;;8.93;;
37855;SDS011;23694;43.274;26.924;2023-07-13T01:45:29;11.07;;;8.48;;
37855;SDS011;23694;43.274;26.924;2023-07-13T01:47:55;12.50;;;9.15;;
37855;SDS011;23694;43.274;26.924;2023-07-13T01:50:21;10.45;;;9.02;;
37855;SDS011;23694;43.274;26.924;2023-07-13T01:52:47;15.07;;;9.43;;
37855;SDS011;23694;43.274;26.924;2023-07-13T01:55:13;11.20;;;9.18;;
37855;SDS011;23694;43.274;26.924;2023-07-13T01:57:39;13.27;;;9.23;;
37855;SDS011;23694;43.274;26.924;2023-07-13T02:00:06;13.35;;;8.65;;
37855;SDS011;23694;43.274;26.924;2023-07-13T02:02:34;13.05;;;8.88;;
37855;SDS011;23694;43.274;26.924;2023-07-13T02:05:00;13.77;;;10.75;;
37855;SDS011;23694;43.274;26.924;2023-07-13T02:07:26;11.77;;;10.50;;
37855;SDS011;23694;43.274;26.924;2023-07-13T02:09:53;13.20;;;11.52;;
37855;SDS011;23694;43.274;26.924;2023-07-13T02:12:19;16.45;;;12.23;;
37855;SDS011;23694;43.274;26.924;2023-07-13T02:14:45;15.00;;;12.55;;
37855;SDS011;23694;43.274;26.924;2023-07-13T02:17:11;17.73;;;12.70;;
37855;SDS011;23694;43.274;26.924;2023-07-13T02:19:38;20.42;;;13.73;;
37855;SDS011;23694;43.274;26.924;2023-07-13T02:22:04;18.63;;;14.38;;
37855;SDS011;23694;43.274;26.924;2023-07-13T02:24:30;18.13;;;13.75;;
37855;SDS011;23694;43.274;26.924;2023-07-13T02:26:56;15.77;;;13.73;;
37855;SDS011;23694;43.274;26.924;2023-07-13T02:29:22;18.90;;;13.82;;
37855;SDS011;23694;43.274;26.924;2023-07-13T02:31:48;18.48;;;14.25;;
37855;SDS011;23694;43.274;26.924;2023-07-13T02:34:14;15.27;;;13.57;;
37855;SDS011;23694;43.274;26.924;2023-07-13T02:36:40;17.17;;;13.70;;
37855;SDS011;23694;43.274;26.924;2023-07-13T02:39:07;17.13;;;13.10;;
37855;SDS011;23694;43.274;26.924;2023-07-13T02:41:34;17.90;;;13.65;;
37855;SDS011;23694;43.274;26.924;2023-07-13T02:44:00;18.73;;;13.63;;
37855;SDS011;23694;43.274;26.924;2023-07-13T02:46:35;17.15;;;14.20;;
37855;SDS011;23694;43.274;26.924;2023-07-13T02:49:02;15.30;;;12.75;;
37855;SDS011;23694;43.274;26.924;2023-07-13T02:51:29;17.08;;;12.95;;
37855;SDS011;23694;43.274;26.924;2023-07-13T02:53:55;28.80;;;20.02;;
37855;SDS011;23694;43.274;26.924;2023-07-13T02:56:22;19.45;;;13.55;;
37855;SDS011;23694;43.274;26.924;2023-07-13T02:58:50;16.92;;;12.63;;
37855;SDS011;23694;43.274;26.924;2023-07-13T03:01:17;17.42;;;13.07;;
37855;SDS011;23694;43.274;26.924;2023-07-13T03:03:45;36.80;;;30.27;;
37855;SDS011;23694;43.274;26.924;2023-07-13T03:06:11;24.02;;;19.48;;
37855;SDS011;23694;43.274;26.924;2023-07-13T03:08:38;18.42;;;14.02;;
37855;SDS011;23694;43.274;26.924;2023-07-13T03:11:06;16.77;;;13.63;;
37855;SDS011;23694;43.274;26.924;2023-07-13T03:13:34;15.52;;;12.75;;
37855;SDS011;23694;43.274;26.924;2023-07-13T03:16:00;18.98;;;13.30;;
37855;SDS011;23694;43.274;26.924;2023-07-13T03:18:27;17.27;;;13.05;;
37855;SDS011;23694;43.274;26.924;2023-07-13T03:20:53;14.30;;;12.35;;
37855;SDS011;23694;43.274;26.924;2023-07-13T03:23:20;17.67;;;12.50;;
37855;SDS011;23694;43.274;26.924;2023-07-13T03:25:47;17.90;;;12.27;;
37855;SDS011;23694;43.274;26.924;2023-07-13T03:28:13;14.43;;;12.10;;
37855;SDS011;23694;43.274;26.924;2023-07-13T03:30:40;16.55;;;12.20;;
37855;SDS011;23694;43.274;26.924;2023-07-13T03:33:07;14.60;;;11.45;;
37855;SDS011;23694;43.274;26.924;2023-07-13T03:35:34;16.80;;;11.10;;
37855;SDS011;23694;43.274;26.924;2023-07-13T03:38:00;14.35;;;11.38;;
37855;SDS011;23694;43.274;26.924;2023-07-13T03:40:27;14.68;;;11.18;;
37855;SDS011;23694;43.274;26.924;2023-07-13T03:42:54;15.63;;;11.43;;
37855;SDS011;23694;43.274;26.924;2023-07-13T03:45:22;15.75;;;11.85;;
37855;SDS011;23694;43.274;26.924;2023-07-13T03:47:49;18.25;;;13.95;;
37855;SDS011;23694;43.274;26.924;2023-07-13T03:50:15;15.85;;;11.70;;
37855;SDS011;23694;43.274;26.924;2023-07-13T03:52:41;15.77;;;11.40;;
37855;SDS011;23694;43.274;26.924;2023-07-13T03:55:07;18.00;;;12.50;;
37855;SDS011;23694;43.274;26.924;2023-07-13T03:57:33;17.08;;;12.48;;
37855;SDS011;23694;43.274;26.924;2023-07-13T04:00:00;16.77;;;11.55;;
37855;SDS011;23694;43.274;26.924;2023-07-13T04:02:26;14.60;;;9.38;;
37855;SDS011;23694;43.274;26.924;2023-07-13T04:04:52;13.05;;;8.90;;
37855;SDS011;23694;43.274;26.924;2023-07-13T04:07:19;13.82;;;10.43;;
37855;SDS011;23694;43.274;26.924;2023-07-13T04:09:45;14.80;;;9.57;;
37855;SDS011;23694;43.274;26.924;2023-07-13T04:12:11;12.45;;;9.35;;
37855;SDS011;23694;43.274;26.924;2023-07-13T04:14:38;15.50;;;10.07;;
37855;SDS011;23694;43.274;26.924;2023-07-13T04:17:04;18.77;;;9.98;;
37855;SDS011;23694;43.274;26.924;2023-07-13T04:19:30;14.02;;;8.82;;
37855;SDS011;23694;43.274;26.924;2023-07-13T04:21:56;12.50;;;9.50;;
37855;SDS011;23694;43.274;26.924;2023-07-13T04:24:22;15.20;;;9.68;;
37855;SDS011;23694;43.274;26.924;2023-07-13T04:26:48;14.20;;;9.80;;
37855;SDS011;23694;43.274;26.924;2023-07-13T04:29:15;17.70;;;10.30;;
37855;SDS011;23694;43.274;26.924;2023-07-13T04:31:41;13.80;;;9.68;;
37855;SDS011;23694;43.274;26.924;2023-07-13T04:34:07;16.55;;;9.48;;
37855;SDS011;23694;43.274;26.924;2023-07-13T04:36:33;11.82;;;8.65;;
37855;SDS011;23694;43.274;26.924;2023-07-13T04:39:03;15.43;;;9.32;;
37855;SDS011;23694;43.274;26.924;2023-07-13T04:41:29;14.23;;;9.32;;
37855;SDS011;23694;43.274;26.924;2023-07-13T04:43:55;14.15;;;8.70;;
37855;SDS011;23694;43.274;26.924;2023-07-13T04:46:21;12.75;;;9.38;;
37855;SDS011;23694;43.274;26.924;2023-07-13T04:48:48;17.45;;;8.95;;
37855;SDS011;23694;43.274;26.924;2023-07-13T04:51:16;13.63;;;9.88;;
37855;SDS011;23694;43.274;26.924;2023-07-13T04:53:42;13.10;;;9.48;;
37855;SDS011;23694;43.274;26.924;2023-07-13T04:56:08;13.65;;;9.07;;
37855;SDS011;23694;43.274;26.924;2023-07-13T04:58:34;15.05;;;9.18;;
37855;SDS011;23694;43.274;26.924;2023-07-13T05:01:01;11.63;;;8.68;;
37855;SDS011;23694;43.274;26.924;2023-07-13T05:03:29;18.25;;;8.57;;
37855;SDS011;23694;43.274;26.924;2023-07-13T05:05:56;12.60;;;9.18;;
37855;SDS011;23694;43.274;26.924;2023-07-13T05:08:30;16.35;;;8.75;;
37855;SDS011;23694;43.274;26.924;2023-07-13T05:10:56;13.60;;;9.38;;
37855;SDS011;23694;43.274;26.924;2023-07-13T05:13:22;12.98;;;8.30;;
37855;SDS011;23694;43.274;26.924;2023-07-13T05:15:59;19.55;;;9.45;;
37855;SDS011;23694;43.274;26.924;2023-07-13T05:18:29;15.43;;;8.95;;
37855;SDS011;23694;43.274;26.924;2023-07-13T05:21:07;14.40;;;8.35;;
37855;SDS011;23694;43.274;26.924;2023-07-13T05:23:35;14.57;;;9.07;;
37855;SDS011;23694;43.274;26.924;2023-07-13T05:26:02;20.30;;;9.00;;
37855;SDS011;23694;43.274;26.924;2023-07-13T05:28:30;14.85;;;9.43;;
37855;SDS011;23694;43.274;26.924;2023-07-13T05:30:57;14.55;;;8.60;;
37855;SDS011;23694;43.274;26.924;2023-07-13T05:33:23;16.38;;;9.88;;
37855;SDS011;23694;43.274;26.924;2023-07-13T05:35:50;16.38;;;9.52;;
37855;SDS011;23694;43.274;26.924;2023-07-13T05:38:16;17.88;;;10.00;;
37855;SDS011;23694;43.274;26.924;2023-07-13T05:40:43;16.55;;;9.98;;
37855;SDS011;23694;43.274;26.924;2023-07-13T05:43:09;17.75;;;10.40;;
37855;SDS011;23694;43.274;26.924;2023-07-13T05:45:36;14.77;;;9.93;;
37855;SDS011;23694;43.274;26.924;2023-07-13T05:48:02;20.60;;;9.80;;
37855;SDS011;23694;43.274;26.924;2023-07-13T05:50:28;14.70;;;9.70;;
37855;SDS011;23694;43.274;26.924;2023-07-13T05:52:55;17.60;;;9.57;;
37855;SDS011;23694;43.274;26.924;2023-07-13T05:55:22;20.40;;;10.07;;
37855;SDS011;23694;43.274;26.924;2023-07-13T05:57:48;17.67;;;10.02;;
37855;SDS011;23694;43.274;26.924;2023-07-13T06:00:14;15.82;;;10.32;;
37855;SDS011;23694;43.274;26.924;2023-07-13T06:02:40;17.75;;;9.93;;
37855;SDS011;23694;43.274;26.924;2023-07-13T06:05:07;19.23;;;11.10;;
37855;SDS011;23694;43.274;26.924;2023-07-13T06:07:33;26.25;;;12.20;;
37855;SDS011;23694;43.274;26.924;2023-07-13T06:09:59;21.52;;;12.30;;
37855;SDS011;23694;43.274;26.924;2023-07-13T06:12:26;21.13;;;12.75;;
37855;SDS011;23694;43.274;26.924;2023-07-13T06:14:52;25.63;;;12.63;;
37855;SDS011;23694;43.274;26.924;2023-07-13T06:17:18;27.25;;;12.88;;
37855;SDS011;23694;43.274;26.924;2023-07-13T06:19:44;28.27;;;11.88;;
37855;SDS011;23694;43.274;26.924;2023-07-13T06:22:10;19.38;;;12.95;;
37855;SDS011;23694;43.274;26.924;2023-07-13T06:24:36;22.90;;;12.07;;
37855;SDS011;23694;43.274;26.924;2023-07-13T06:27:02;20.98;;;12.07;;
37855;SDS011;23694;43.274;26.924;2023-07-13T06:29:29;18.35;;;12.32;;
37855;SDS011;23694;43.274;26.924;2023-07-13T06:31:55;23.23;;;11.70;;
37855;SDS011;23694;43.274;26.924;2023-07-13T06:34:21;25.50;;;11.68;;
37855;SDS011;23694;43.274;26.924;2023-07-13T06:36:47;21.80;;;11.55;;
37855;SDS011;23694;43.274;26.924;2023-07-13T06:39:13;17.83;;;11.52;;
37855;SDS011;23694;43.274;26.924;2023-07-13T06:41:39;18.65;;;11.65;;
37855;SDS011;23694;43.274;26.924;2023-07-13T06:44:05;18.88;;;11.82;;
37855;SDS011;23694;43.274;26.924;2023-07-13T06:46:32;14.63;;;10.88;;
37855;SDS011;23694;43.274;26.924;2023-07-13T06:48:58;16.20;;;11.77;;
37855;SDS011;23694;43.274;26.924;2023-07-13T06:51:24;14.13;;;11.40;;
37855;SDS011;23694;43.274;26.924;2023-07-13T06:53:51;16.77;;;11.80;;
37855;SDS011;23694;43.274;26.924;2023-07-13T06:56:17;15.48;;;12.18;;
37855;SDS011;23694;43.274;26.924;2023-07-13T06:58:43;16.88;;;12.25;;
37855;SDS011;23694;43.274;26.924;2023-07-13T07:01:09;15.60;;;12.85;;
37855;SDS011;23694;43.274;26.924;2023-07-13T07:03:35;20.58;;;13.00;;
37855;SDS011;23694;43.274;26.924;2023-07-13T07:06:03;21.23;;;12.82;;
37855;SDS011;23694;43.274;26.924;2023-07-13T07:08:37;20.33;;;13.35;;
37855;SDS011;23694;43.274;26.924;2023-07-13T07:11:03;15.82;;;11.60;;
37855;SDS011;23694;43.274;26.924;2023-07-13T07:13:29;17.00;;;13.18;;
37855;SDS011;23694;43.274;26.924;2023-07-13T07:15:55;15.10;;;12.75;;
37855;SDS011;23694;43.274;26.924;2023-07-13T07:18:26;14.25;;;11.73;;
37855;SDS011;23694;43.274;26.924;2023-07-13T07:20:52;16.00;;;12.15;;
37855;SDS011;23694;43.274;26.924;2023-07-13T07:23:24;15.55;;;12.13;;
37855;SDS011;23694;43.274;26.924;2023-07-13T07:25:50;18.58;;;12.77;;
37855;SDS011;23694;43.274;26.924;2023-07-13T07:28:17;19.10;;;12.50;;
37855;SDS011;23694;43.274;26.924;2023-07-13T07:30:46;16.67;;;12.00;;
37855;SDS011;23694;43.274;26.924;2023-07-13T07:33:18;16.23;;;11.93;;
37855;SDS011;23694;43.274;26.924;2023-07-13T07:35:44;19.00;;;12.90;;
37855;SDS011;23694;43.274;26.924;2023-07-13T07:38:10;15.30;;;12.15;;
37855;SDS011;23694;43.274;26.924;2023-07-13T07:40:37;15.50;;;11.93;;
37855;SDS011;23694;43.274;26.924;2023-07-13T07:43:03;21.95;;;12.32;;
37855;SDS011;23694;43.274;26.924;2023-07-13T07:45:29;15.60;;;11.52;;
37855;SDS011;23694;43.274;26.924;2023-07-13T07:47:56;21.75;;;11.82;;
37855;SDS011;23694;43.274;26.924;2023-07-13T07:50:28;14.55;;;11.75;;
37855;SDS011;23694;43.274;26.924;2023-07-13T07:52:54;13.02;;;11.30;;
37855;SDS011;23694;43.274;26.924;2023-07-13T07:55:24;17.77;;;12.75;;
37855;SDS011;23694;43.274;26.924;2023-07-13T07:57:52;16.65;;;12.60;;
37855;SDS011;23694;43.274;26.924;2023-07-13T08:00:18;14.48;;;12.02;;
37855;SDS011;23694;43.274;26.924;2023-07-13T08:02:44;13.65;;;11.43;;
37855;SDS011;23694;43.274;26.924;2023-07-13T08:05:11;12.77;;;11.40;;
37855;SDS011;23694;43.274;26.924;2023-07-13T08:07:38;19.55;;;11.60;;
37855;SDS011;23694;43.274;26.924;2023-07-13T08:10:05;15.13;;;11.32;;
37855;SDS011;23694;43.274;26.924;2023-07-13T08:12:35;15.10;;;11.30;;
37855;SDS011;23694;43.274;26.924;2023-07-13T08:15:03;17.42;;;11.80;;
37855;SDS011;23694;43.274;26.924;2023-07-13T08:17:30;14.02;;;11.40;;
37855;SDS011;23694;43.274;26.924;2023-07-13T08:19:57;12.60;;;11.25;;
37855;SDS011;23694;43.274;26.924;2023-07-13T08:22:23;14.85;;;10.85;;
37855;SDS011;23694;43.274;26.924;2023-07-13T08:24:49;14.70;;;10.00;;
37855;SDS011;23694;43.274;26.924;2023-07-13T08:27:22;16.00;;;10.90;;
37855;SDS011;23694;43.274;26.924;2023-07-13T08:29:49;12.93;;;10.80;;
37855;SDS011;23694;43.274;26.924;2023-07-13T08:32:15;12.30;;;10.13;;
37855;SDS011;23694;43.274;26.924;2023-07-13T08:34:42;15.13;;;10.30;;
37855;SDS011;23694;43.274;26.924;2023-07-13T08:37:08;10.25;;;7.90;;
37855;SDS011;23694;43.274;26.924;2023-07-13T08:39:35;14.98;;;9.40;;
37855;SDS011;23694;43.274;26.924;2023-07-13T08:42:10;14.02;;;8.45;;
37855;SDS011;23694;43.274;26.924;2023-07-13T08:47:07;12.95;;;9.60;;
37855;SDS011;23694;43.274;26.924;2023-07-13T08:49:37;13.77;;;9.25;;
37855;SDS011;23694;43.274;26.924;2023-07-13T08:52:05;15.05;;;8.50;;
37855;SDS011;23694;43.274;26.924;2023-07-13T08:54:41;12.93;;;8.63;;
37855;SDS011;23694;43.274;26.924;2023-07-13T08:57:14;10.25;;;5.90;;
37855;SDS011;23694;43.274;26.924;2023-07-13T08:59:44;9.98;;;5.30;;
37855;SDS011;23694;43.274;26.924;2023-07-13T09:02:16;8.70;;;5.28;;
37855;SDS011;23694;43.274;26.924;2023-07-13T09:05:04;9.15;;;4.88;;
37855;SDS011;23694;43.274;26.924;2023-07-13T09:10:45;13.27;;;5.63;;
37855;SDS011;23694;43.274;26.924;2023-07-13T09:15:55;9.20;;;5.55;;
37855;SDS011;23694;43.274;26.924;2023-07-13T09:18:30;8.38;;;4.75;;
37855;SDS011;23694;43.274;26.924;2023-07-13T09:23:38;20.67;;;6.32;;
37855;SDS011;23694;43.274;26.924;2023-07-13T09:26:06;15.45;;;5.25;;
37855;SDS011;23694;43.274;26.924;2023-07-13T09:28:42;11.10;;;4.72;;
37855;SDS011;23694;43.274;26.924;2023-07-13T09:31:19;10.15;;;4.90;;
37855;SDS011;23694;43.274;26.924;2023-07-13T09:33:53;10.68;;;4.60;;
37855;SDS011;23694;43.274;26.924;2023-07-13T09:36:27;11.32;;;4.55;;
37855;SDS011;23694;43.274;26.924;2023-07-13T09:46:56;7.68;;;4.55;;
37855;SDS011;23694;43.274;26.924;2023-07-13T09:49:24;14.82;;;5.13;;
37855;SDS011;23694;43.274;26.924;2023-07-13T09:51:57;9.05;;;4.80;;
37855;SDS011;23694;43.274;26.924;2023-07-13T09:54:33;11.43;;;5.18;;
37855;SDS011;23694;43.274;26.924;2023-07-13T09:57:00;9.18;;;4.55;;
37855;SDS011;23694;43.274;26.924;2023-07-13T09:59:35;7.82;;;4.30;;
37855;SDS011;23694;43.274;26.924;2023-07-13T10:05:01;10.52;;;4.45;;
37855;SDS011;23694;43.274;26.924;2023-07-13T10:07:32;7.18;;;4.30;;
37855;SDS011;23694;43.274;26.924;2023-07-13T10:10:13;9.07;;;4.35;;
37855;SDS011;23694;43.274;26.924;2023-07-13T10:12:41;13.70;;;4.63;;
37855;SDS011;23694;43.274;26.924;2023-07-13T10:15:07;8.90;;;4.40;;
37855;SDS011;23694;43.274;26.924;2023-07-13T10:17:41;10.02;;;4.90;;
37855;SDS011;23694;43.274;26.924;2023-07-13T10:20:09;9.60;;;4.40;;
37855;SDS011;23694;43.274;26.924;2023-07-13T10:22:45;9.05;;;4.57;;
37855;SDS011;23694;43.274;26.924;2023-07-13T10:25:27;11.98;;;4.70;;
37855;SDS011;23694;43.274;26.924;2023-07-13T10:28:03;8.00;;;4.60;;
37855;SDS011;23694;43.274;26.924;2023-07-13T10:30:47;11.68;;;4.45;;
37855;SDS011;23694;43.274;26.924;2023-07-13T10:33:15;9.65;;;4.68;;
37855;SDS011;23694;43.274;26.924;2023-07-13T10:35:42;8.23;;;4.60;;
37855;SDS011;23694;43.274;26.924;2023-07-13T10:38:14;7.07;;;4.57;;
37855;SDS011;23694;43.274;26.924;2023-07-13T10:43:37;11.25;;;5.05;;
37855;SDS011;23694;43.274;26.924;2023-07-13T10:46:08;11.43;;;4.70;;
37855;SDS011;23694;43.274;26.924;2023-07-13T10:48:39;9.40;;;5.13;;
37855;SDS011;23694;43.274;26.924;2023-07-13T10:51:07;11.23;;;5.10;;
37855;SDS011;23694;43.274;26.924;2023-07-13T10:53:34;8.23;;;5.00;;
37855;SDS011;23694;43.274;26.924;2023-07-13T10:56:03;8.95;;;5.28;;
37855;SDS011;23694;43.274;26.924;2023-07-13T10:59:01;13.32;;;5.95;;
37855;SDS011;23694;43.274;26.924;2023-07-13T11:04:16;11.23;;;5.32;;
37855;SDS011;23694;43.274;26.924;2023-07-13T11:06:47;11.65;;;5.38;;
37855;SDS011;23694;43.274;26.924;2023-07-13T11:11:47;8.38;;;5.53;;
37855;SDS011;23694;43.274;26.924;2023-07-13T11:16:46;14.30;;;5.90;;
37855;SDS011;23694;43.274;26.924;2023-07-13T11:28:04;12.20;;;5.28;;
37855;SDS011;23694;43.274;26.924;2023-07-13T11:30:46;9.30;;;5.20;;
37855;SDS011;23694;43.274;26.924;2023-07-13T11:38:38;8.20;;;5.40;;
37855;SDS011;23694;43.274;26.924;2023-07-13T11:43:49;9.52;;;4.88;;
37855;SDS011;23694;43.274;26.924;2023-07-13T11:46:26;11.27;;;5.00;;
37855;SDS011;23694;43.274;26.924;2023-07-13T11:48:53;17.48;;;5.95;;
37855;SDS011;23694;43.274;26.924;2023-07-13T11:51:23;10.38;;;5.07;;
37855;SDS011;23694;43.274;26.924;2023-07-13T11:53:52;14.80;;;5.80;;
37855;SDS011;23694;43.274;26.924;2023-07-13T11:56:20;14.63;;;5.60;;
37855;SDS011;23694;43.274;26.924;2023-07-13T11:58:49;10.05;;;7.20;;
37855;SDS011;23694;43.274;26.924;2023-07-13T12:01:20;10.55;;;5.28;;
37855;SDS011;23694;43.274;26.924;2023-07-13T12:03:48;12.07;;;4.90;;
37855;SDS011;23694;43.274;26.924;2023-07-13T12:06:21;14.40;;;5.60;;
37855;SDS011;23694;43.274;26.924;2023-07-13T12:08:55;12.93;;;5.75;;
37855;SDS011;23694;43.274;26.924;2023-07-13T12:11:23;11.63;;;5.25;;
37855;SDS011;23694;43.274;26.924;2023-07-13T12:13:49;6.45;;;4.60;;
37855;SDS011;23694;43.274;26.924;2023-07-13T12:16:29;10.10;;;5.45;;
37855;SDS011;23694;43.274;26.924;2023-07-13T12:19:01;23.02;;;5.10;;
37855;SDS011;23694;43.274;26.924;2023-07-13T12:21:32;11.90;;;5.15;;
37855;SDS011;23694;43.274;26.924;2023-07-13T12:24:00;8.15;;;4.75;;
37855;SDS011;23694;43.274;26.924;2023-07-13T12:26:28;15.07;;;11.02;;
37855;SDS011;23694;43.274;26.924;2023-07-13T12:28:56;11.10;;;6.85;;
37855;SDS011;23694;43.274;26.924;2023-07-13T12:31:30;10.38;;;5.20;;
37855;SDS011;23694;43.274;26.924;2023-07-13T12:36:38;11.50;;;5.03;;
37855;SDS011;23694;43.274;26.924;2023-07-13T12:39:23;11.85;;;4.18;;
37855;SDS011;23694;43.274;26.924;2023-07-13T12:42:17;11.55;;;6.07;;
37855;SDS011;23694;43.274;26.924;2023-07-13T12:44:57;11.23;;;8.35;;
37855;SDS011;23694;43.274;26.924;2023-07-13T12:47:27;9.10;;;4.72;;
37855;SDS011;23694;43.274;26.924;2023-07-13T12:49:55;11.02;;;4.95;;
37855;SDS011;23694;43.274;26.924;2023-07-13T12:52:33;10.20;;;4.80;;
37855;SDS011;23694;43.274;26.924;2023-07-13T12:55:05;21.23;;;5.68;;
37855;SDS011;23694;43.274;26.924;2023-07-13T12:57:40;8.48;;;5.00;;
37855;SDS011;23694;43.274;26.924;2023-07-13T13:03:01;14.93;;;7.40;;
37855;SDS011;23694;43.274;26.924;2023-07-13T13:05:31;8.18;;;4.55;;
37855;SDS011;23694;43.274;26.924;2023-07-13T13:07:58;13.77;;;8.43;;
37855;SDS011;23694;43.274;26.924;2023-07-13T13:10:24;10.73;;;4.90;;
37855;SDS011;23694;43.274;26.924;2023-07-13T13:12:51;12.98;;;4.90;;
37855;SDS011;23694;43.274;26.924;2023-07-13T13:15:18;10.13;;;4.88;;
37855;SDS011;23694;43.274;26.924;2023-07-13T13:17:44;16.95;;;5.00;;
37855;SDS011;23694;43.274;26.924;2023-07-13T13:20:18;8.18;;;4.40;;
37855;SDS011;23694;43.274;26.924;2023-07-13T13:22:45;35.38;;;6.03;;
37855;SDS011;23694;43.274;26.924;2023-07-13T13:25:12;13.23;;;4.80;;
37855;SDS011;23694;43.274;26.924;2023-07-13T13:27:40;12.43;;;5.03;;
37855;SDS011;23694;43.274;26.924;2023-07-13T13:30:14;8.23;;;4.82;;
37855;SDS011;23694;43.274;26.924;2023-07-13T13:32:42;16.65;;;5.47;;
37855;SDS011;23694;43.274;26.924;2023-07-13T13:35:17;7.35;;;4.60;;
37855;SDS011;23694;43.274;26.924;2023-07-13T13:37:44;13.38;;;4.80;;
37855;SDS011;23694;43.274;26.924;2023-07-13T13:40:18;7.57;;;4.68;;
37855;SDS011;23694;43.274;26.924;2023-07-13T13:42:48;10.13;;;5.00;;
37855;SDS011;23694;43.274;26.924;2023-07-13T13:45:14;10.02;;;4.75;;
37855;SDS011;23694;43.274;26.924;2023-07-13T13:47:43;10.98;;;4.93;;
37855;SDS011;23694;43.274;26.924;2023-07-13T13:50:14;9.25;;;4.45;;
37855;SDS011;23694;43.274;26.924;2023-07-13T13:52:42;11.63;;;4.65;;
37855;SDS011;23694;43.274;26.924;2023-07-13T13:55:13;10.48;;;4.90;;
37855;SDS011;23694;43.274;26.924;2023-07-13T13:57:46;9.88;;;4.80;;
37855;SDS011;23694;43.274;26.924;2023-07-13T14:00:14;10.75;;;4.13;;
37855;SDS011;23694;43.274;26.924;2023-07-13T14:02:46;11.88;;;4.60;;
37855;SDS011;23694;43.274;26.924;2023-07-13T14:05:15;8.80;;;4.75;;
37855;SDS011;23694;43.274;26.924;2023-07-13T14:07:46;8.85;;;4.75;;
37855;SDS011;23694;43.274;26.924;2023-07-13T14:10:13;13.95;;;5.18;;
37855;SDS011;23694;43.274;26.924;2023-07-13T14:12:42;11.88;;;4.82;;
37855;SDS011;23694;43.274;26.924;2023-07-13T14:15:26;10.32;;;5.30;;
37855;SDS011;23694;43.274;26.924;2023-07-13T14:17:56;19.60;;;5.70;;
37855;SDS011;23694;43.274;26.924;2023-07-13T14:20:23;12.68;;;5.70;;
37855;SDS011;23694;43.274;26.924;2023-07-13T14:22:54;16.60;;;5.25;;
37855;SDS011;23694;43.274;26.924;2023-07-13T14:25:20;9.40;;;5.05;;
37855;SDS011;23694;43.274;26.924;2023-07-13T14:27:49;12.05;;;4.53;;
37855;SDS011;23694;43.274;26.924;2023-07-13T14:30:19;12.13;;;5.00;;
37855;SDS011;23694;43.274;26.924;2023-07-13T14:32:47;9.65;;;4.95;;
37855;SDS011;23694;43.274;26.924;2023-07-13T14:35:15;9.23;;;4.40;;
37855;SDS011;23694;43.274;26.924;2023-07-13T14:37:43;11.57;;;4.65;;
37855;SDS011;23694;43.274;26.924;2023-07-13T14:40:16;15.20;;;4.88;;
37855;SDS011;23694;43.274;26.924;2023-07-13T14:42:44;11.98;;;4.43;;
37855;SDS011;23694;43.274;26.924;2023-07-13T14:45:14;27.80;;;5.40;;
37855;SDS011;23694;43.274;26.924;2023-07-13T14:47:43;20.38;;;5.18;;
37855;SDS011;23694;43.274;26.924;2023-07-13T14:50:16;15.68;;;5.22;;
37855;SDS011;23694;43.274;26.924;2023-07-13T14:52:47;10.05;;;4.40;;
37855;SDS011;23694;43.274;26.924;2023-07-13T14:55:14;15.07;;;4.85;;
37855;SDS011;23694;43.274;26.924;2023-07-13T14:57:43;10.73;;;4.30;;
37855;SDS011;23694;43.274;26.924;2023-07-13T15:00:13;15.45;;;4.47;;
37855;SDS011;23694;43.274;26.924;2023-07-13T15:02:41;12.98;;;4.50;;
37855;SDS011;23694;43.274;26.924;2023-07-13T15:05:17;15.07;;;10.38;;
37855;SDS011;23694;43.274;26.924;2023-07-13T15:07:49;18.58;;;5.00;;
37855;SDS011;23694;43.274;26.924;2023-07-13T15:10:19;17.05;;;11.07;;
37855;SDS011;23694;43.274;26.924;2023-07-13T15:12:48;12.70;;;4.63;;
37855;SDS011;23694;43.274;26.924;2023-07-13T15:15:16;15.88;;;4.85;;
37855;SDS011;23694;43.274;26.924;2023-07-13T15:17:44;18.35;;;4.78;;
37855;SDS011;23694;43.274;26.924;2023-07-13T15:20:23;7.40;;;4.50;;
37855;SDS011;23694;43.274;26.924;2023-07-13T15:22:55;9.98;;;4.30;;